sensor_id;sensor_type;location;lat;lon;timestamp;temperature;humidity
20171;DHT22;10245;51.344;6.620;2023-10-08T00:01:33;18.50;72.80
20171;DHT22;10245;51.344;6.620;2023-10-08T00:03:56;18.40;72.40
20171;DHT22;10245;51.344;6.620;2023-10-08T00:06:23;18.30;73.30
20171;DHT22;10245;51.344;6.620;2023-10-08T00:08:47;18.30;72.90
20171;DHT22;10245;51.344;6.620;2023-10-08T00:11:10;18.40;72.70
20171;DHT22;10245;51.344;6.620;2023-10-08T00:13:34;18.30;72.80
20171;DHT22;10245;51.344;6.620;2023-10-08T00:16:02;18.30;72.80
20171;DHT22;10245;51.344;6.620;2023-10-08T00:18:32;18.20;73.30
20171;DHT22;10245;51.344;6.620;2023-10-08T00:20:56;18.20;73.20
20171;DHT22;10245;51.344;6.620;2023-10-08T00:23:28;18.20;73.00
20171;DHT22;10245;51.344;6.620;2023-10-08T00:25:52;18.30;73.20
20171;DHT22;10245;51.344;6.620;2023-10-08T00:28:16;18.30;72.90
20171;DHT22;10245;51.344;6.620;2023-10-08T00:30:40;18.30;73.00
20171;DHT22;10245;51.344;6.620;2023-10-08T00:33:04;18.20;73.20
20171;DHT22;10245;51.344;6.620;2023-10-08T00:35:30;18.20;73.70
20171;DHT22;10245;51.344;6.620;2023-10-08T00:37:54;18.00;73.50
20171;DHT22;10245;51.344;6.620;2023-10-08T00:40:23;18.10;73.40
20171;DHT22;10245;51.344;6.620;2023-10-08T00:42:46;18.10;73.30
20171;DHT22;10245;51.344;6.620;2023-10-08T00:45:13;18.10;73.70
20171;DHT22;10245;51.344;6.620;2023-10-08T00:47:39;18.00;73.90
20171;DHT22;10245;51.344;6.620;2023-10-08T00:50:06;18.00;73.90
20171;DHT22;10245;51.344;6.620;2023-10-08T00:52:33;18.00;73.50
20171;DHT22;10245;51.344;6.620;2023-10-08T00:55:04;18.00;73.40
20171;DHT22;10245;51.344;6.620;2023-10-08T00:57:52;18.00;73.90
20171;DHT22;10245;51.344;6.620;2023-10-08T01:00:20;18.00;73.70
20171;DHT22;10245;51.344;6.620;2023-10-08T01:02:44;18.00;73.80
20171;DHT22;10245;51.344;6.620;2023-10-08T01:05:12;17.90;74.10
20171;DHT22;10245;51.344;6.620;2023-10-08T01:07:54;17.90;74.20
20171;DHT22;10245;51.344;6.620;2023-10-08T01:10:18;17.90;74.00
20171;DHT22;10245;51.344;6.620;2023-10-08T01:12:42;17.90;74.70
20171;DHT22;10245;51.344;6.620;2023-10-08T01:15:17;17.80;73.90
20171;DHT22;10245;51.344;6.620;2023-10-08T01:17:45;17.70;73.70
20171;DHT22;10245;51.344;6.620;2023-10-08T01:20:15;17.70;74.00
20171;DHT22;10245;51.344;6.620;2023-10-08T01:22:56;17.70;74.60
20171;DHT22;10245;51.344;6.620;2023-10-08T01:25:20;17.60;74.10
20171;DHT22;10245;51.344;6.620;2023-10-08T01:27:46;17.50;74.20
20171;DHT22;10245;51.344;6.620;2023-10-08T01:30:10;17.50;74.50
20171;DHT22;10245;51.344;6.620;2023-10-08T01:32:40;17.50;74.40
20171;DHT22;10245;51.344;6.620;2023-10-08T01:35:06;17.50;74.20
20171;DHT22;10245;51.344;6.620;2023-10-08T01:37:44;17.40;74.40
20171;DHT22;10245;51.344;6.620;2023-10-08T01:40:11;17.30;74.10
20171;DHT22;10245;51.344;6.620;2023-10-08T01:42:35;17.40;74.20
20171;DHT22;10245;51.344;6.620;2023-10-08T01:45:01;17.30;74.10
20171;DHT22;10245;51.344;6.620;2023-10-08T01:47:35;17.40;74.20
20171;DHT22;10245;51.344;6.620;2023-10-08T01:49:59;17.30;75.20
20171;DHT22;10245;51.344;6.620;2023-10-08T01:52:27;17.40;74.40
20171;DHT22;10245;51.344;6.620;2023-10-08T01:54:51;17.30;74.60
20171;DHT22;10245;51.344;6.620;2023-10-08T01:57:17;17.30;74.50
20171;DHT22;10245;51.344;6.620;2023-10-08T01:59:41;17.20;74.90
20171;DHT22;10245;51.344;6.620;2023-10-08T02:02:06;17.30;74.50
20171;DHT22;10245;51.344;6.620;2023-10-08T02:04:30;17.20;75.10
20171;DHT22;10245;51.344;6.620;2023-10-08T02:06:55;17.20;75.80
20171;DHT22;10245;51.344;6.620;2023-10-08T02:09:19;17.20;75.70
20171;DHT22;10245;51.344;6.620;2023-10-08T02:11:48;17.20;75.30
20171;DHT22;10245;51.344;6.620;2023-10-08T02:14:14;17.10;75.30
20171;DHT22;10245;51.344;6.620;2023-10-08T02:16:39;17.10;75.00
20171;DHT22;10245;51.344;6.620;2023-10-08T02:19:04;17.20;74.90
20171;DHT22;10245;51.344;6.620;2023-10-08T02:21:28;17.20;75.90
20171;DHT22;10245;51.344;6.620;2023-10-08T02:23:53;17.10;75.70
20171;DHT22;10245;51.344;6.620;2023-10-08T02:26:16;17.20;75.90
20171;DHT22;10245;51.344;6.620;2023-10-08T02:28:41;17.30;75.50
20171;DHT22;10245;51.344;6.620;2023-10-08T02:31:06;17.10;75.90
20171;DHT22;10245;51.344;6.620;2023-10-08T02:33:30;17.20;76.00
20171;DHT22;10245;51.344;6.620;2023-10-08T02:35:56;17.20;76.10
20171;DHT22;10245;51.344;6.620;2023-10-08T02:38:19;16.90;76.60
20171;DHT22;10245;51.344;6.620;2023-10-08T02:40:45;16.90;76.60
20171;DHT22;10245;51.344;6.620;2023-10-08T02:43:10;16.80;76.90
20171;DHT22;10245;51.344;6.620;2023-10-08T02:45:36;16.80;77.10
20171;DHT22;10245;51.344;6.620;2023-10-08T02:48:02;16.80;76.80
20171;DHT22;10245;51.344;6.620;2023-10-08T02:50:34;16.80;77.90
20171;DHT22;10245;51.344;6.620;2023-10-08T02:52:57;16.80;76.90
20171;DHT22;10245;51.344;6.620;2023-10-08T02:55:25;16.80;76.80
20171;DHT22;10245;51.344;6.620;2023-10-08T02:57:56;16.80;77.20
20171;DHT22;10245;51.344;6.620;2023-10-08T03:00:20;16.60;76.80
20171;DHT22;10245;51.344;6.620;2023-10-08T03:02:45;16.70;76.50
20171;DHT22;10245;51.344;6.620;2023-10-08T03:05:09;16.70;76.90
20171;DHT22;10245;51.344;6.620;2023-10-08T03:07:35;16.70;76.50
20171;DHT22;10245;51.344;6.620;2023-10-08T03:10:00;16.80;76.60
20171;DHT22;10245;51.344;6.620;2023-10-08T03:12:27;16.60;77.00
20171;DHT22;10245;51.344;6.620;2023-10-08T03:14:53;16.60;76.60
20171;DHT22;10245;51.344;6.620;2023-10-08T03:17:35;16.60;76.60
20171;DHT22;10245;51.344;6.620;2023-10-08T03:20:01;16.60;76.60
20171;DHT22;10245;51.344;6.620;2023-10-08T03:22:49;16.60;76.30
20171;DHT22;10245;51.344;6.620;2023-10-08T03:25:13;16.50;76.60
20171;DHT22;10245;51.344;6.620;2023-10-08T03:27:38;16.50;77.00
20171;DHT22;10245;51.344;6.620;2023-10-08T03:30:05;16.50;76.80
20171;DHT22;10245;51.344;6.620;2023-10-08T03:32:37;16.50;76.80
20171;DHT22;10245;51.344;6.620;2023-10-08T03:35:04;16.50;76.70
20171;DHT22;10245;51.344;6.620;2023-10-08T03:37:32;16.50;76.80
20171;DHT22;10245;51.344;6.620;2023-10-08T03:40:10;16.50;77.40
20171;DHT22;10245;51.344;6.620;2023-10-08T03:42:46;16.50;76.80
20171;DHT22;10245;51.344;6.620;2023-10-08T03:45:11;16.50;76.50
20171;DHT22;10245;51.344;6.620;2023-10-08T03:47:38;16.50;76.90
20171;DHT22;10245;51.344;6.620;2023-10-08T03:50:09;16.50;77.10
20171;DHT22;10245;51.344;6.620;2023-10-08T03:52:33;16.50;77.20
20171;DHT22;10245;51.344;6.620;2023-10-08T03:54:59;16.60;77.90
20171;DHT22;10245;51.344;6.620;2023-10-08T03:57:37;16.50;77.50
20171;DHT22;10245;51.344;6.620;2023-10-08T04:00:11;16.50;77.10
20171;DHT22;10245;51.344;6.620;2023-10-08T04:02:41;16.40;77.20
20171;DHT22;10245;51.344;6.620;2023-10-08T04:05:09;16.40;77.30
20171;DHT22;10245;51.344;6.620;2023-10-08T04:07:42;16.30;77.50
20171;DHT22;10245;51.344;6.620;2023-10-08T04:10:21;16.40;77.80
20171;DHT22;10245;51.344;6.620;2023-10-08T04:13:12;16.40;77.30
20171;DHT22;10245;51.344;6.620;2023-10-08T04:15:38;16.40;77.50
20171;DHT22;10245;51.344;6.620;2023-10-08T04:18:03;16.50;77.90
20171;DHT22;10245;51.344;6.620;2023-10-08T04:20:27;16.50;77.50
20171;DHT22;10245;51.344;6.620;2023-10-08T04:22:55;16.40;76.90
20171;DHT22;10245;51.344;6.620;2023-10-08T04:25:21;16.30;77.10
20171;DHT22;10245;51.344;6.620;2023-10-08T04:27:44;16.30;77.20
20171;DHT22;10245;51.344;6.620;2023-10-08T04:30:13;16.20;77.10
20171;DHT22;10245;51.344;6.620;2023-10-08T04:32:37;16.20;77.10
20171;DHT22;10245;51.344;6.620;2023-10-08T04:35:02;16.20;77.10
20171;DHT22;10245;51.344;6.620;2023-10-08T04:37:29;16.20;77.10
20171;DHT22;10245;51.344;6.620;2023-10-08T04:39:55;16.20;77.30
20171;DHT22;10245;51.344;6.620;2023-10-08T04:42:21;16.20;77.10
20171;DHT22;10245;51.344;6.620;2023-10-08T04:44:48;16.10;76.90
20171;DHT22;10245;51.344;6.620;2023-10-08T04:47:15;16.10;76.90
20171;DHT22;10245;51.344;6.620;2023-10-08T04:49:54;16.10;77.00
20171;DHT22;10245;51.344;6.620;2023-10-08T04:52:18;16.10;77.60
20171;DHT22;10245;51.344;6.620;2023-10-08T04:54:43;16.10;77.40
20171;DHT22;10245;51.344;6.620;2023-10-08T04:57:13;16.20;77.30
20171;DHT22;10245;51.344;6.620;2023-10-08T04:59:37;16.10;77.00
20171;DHT22;10245;51.344;6.620;2023-10-08T05:02:02;16.10;77.40
20171;DHT22;10245;51.344;6.620;2023-10-08T05:04:43;16.10;77.50
20171;DHT22;10245;51.344;6.620;2023-10-08T05:07:18;16.20;77.20
20171;DHT22;10245;51.344;6.620;2023-10-08T05:10:02;16.10;77.10
20171;DHT22;10245;51.344;6.620;2023-10-08T05:12:53;16.00;77.20
20171;DHT22;10245;51.344;6.620;2023-10-08T05:15:23;16.00;77.50
20171;DHT22;10245;51.344;6.620;2023-10-08T05:17:55;16.00;77.50
20171;DHT22;10245;51.344;6.620;2023-10-08T05:20:36;16.00;77.50
20171;DHT22;10245;51.344;6.620;2023-10-08T05:23:20;16.00;77.30
20171;DHT22;10245;51.344;6.620;2023-10-08T05:26:03;16.00;77.50
20171;DHT22;10245;51.344;6.620;2023-10-08T05:28:31;16.00;77.60
20171;DHT22;10245;51.344;6.620;2023-10-08T05:30:57;15.90;77.60
20171;DHT22;10245;51.344;6.620;2023-10-08T05:33:33;15.80;78.30
20171;DHT22;10245;51.344;6.620;2023-10-08T05:36:23;16.00;77.80
20171;DHT22;10245;51.344;6.620;2023-10-08T05:38:50;15.80;78.20
20171;DHT22;10245;51.344;6.620;2023-10-08T05:41:23;15.80;78.10
20171;DHT22;10245;51.344;6.620;2023-10-08T05:44:00;15.90;78.80
20171;DHT22;10245;51.344;6.620;2023-10-08T05:46:41;15.90;79.30
20171;DHT22;10245;51.344;6.620;2023-10-08T05:49:29;15.80;78.30
20171;DHT22;10245;51.344;6.620;2023-10-08T05:52:05;15.80;78.80
20171;DHT22;10245;51.344;6.620;2023-10-08T05:54:47;15.80;79.40
20171;DHT22;10245;51.344;6.620;2023-10-08T05:57:33;15.80;79.30
20171;DHT22;10245;51.344;6.620;2023-10-08T06:00:02;15.80;79.80
20171;DHT22;10245;51.344;6.620;2023-10-08T06:02:42;15.70;78.70
20171;DHT22;10245;51.344;6.620;2023-10-08T06:05:23;15.60;78.70
20171;DHT22;10245;51.344;6.620;2023-10-08T06:07:50;15.70;79.10
20171;DHT22;10245;51.344;6.620;2023-10-08T06:10:19;15.70;79.20
20171;DHT22;10245;51.344;6.620;2023-10-08T06:13:05;15.70;79.30
20171;DHT22;10245;51.344;6.620;2023-10-08T06:15:28;15.60;79.20
20171;DHT22;10245;51.344;6.620;2023-10-08T06:18:06;15.70;79.30
20171;DHT22;10245;51.344;6.620;2023-10-08T06:20:30;15.60;78.60
20171;DHT22;10245;51.344;6.620;2023-10-08T06:23:00;15.50;79.30
20171;DHT22;10245;51.344;6.620;2023-10-08T06:25:29;15.70;79.40
20171;DHT22;10245;51.344;6.620;2023-10-08T06:27:52;15.60;79.30
20171;DHT22;10245;51.344;6.620;2023-10-08T06:30:18;15.60;79.30
20171;DHT22;10245;51.344;6.620;2023-10-08T06:32:41;15.60;79.70
20171;DHT22;10245;51.344;6.620;2023-10-08T06:35:07;15.60;79.20
20171;DHT22;10245;51.344;6.620;2023-10-08T06:37:38;15.60;79.20
20171;DHT22;10245;51.344;6.620;2023-10-08T06:40:03;15.70;78.90
20171;DHT22;10245;51.344;6.620;2023-10-08T06:42:49;15.60;79.30
20171;DHT22;10245;51.344;6.620;2023-10-08T06:45:13;15.70;79.70
20171;DHT22;10245;51.344;6.620;2023-10-08T06:47:38;15.70;79.40
20171;DHT22;10245;51.344;6.620;2023-10-08T06:50:03;15.80;78.90
20171;DHT22;10245;51.344;6.620;2023-10-08T06:52:37;15.60;79.30
20171;DHT22;10245;51.344;6.620;2023-10-08T06:55:00;15.60;79.10
20171;DHT22;10245;51.344;6.620;2023-10-08T06:57:26;15.70;79.70
20171;DHT22;10245;51.344;6.620;2023-10-08T06:59:50;15.90;79.50
20171;DHT22;10245;51.344;6.620;2023-10-08T07:02:13;15.80;79.30
20171;DHT22;10245;51.344;6.620;2023-10-08T07:04:38;15.80;80.10
20171;DHT22;10245;51.344;6.620;2023-10-08T07:07:03;16.00;79.10
20171;DHT22;10245;51.344;6.620;2023-10-08T07:09:31;15.80;79.20
20171;DHT22;10245;51.344;6.620;2023-10-08T07:11:58;15.80;79.20
20171;DHT22;10245;51.344;6.620;2023-10-08T07:14:29;15.70;79.50
20171;DHT22;10245;51.344;6.620;2023-10-08T07:16:54;15.70;79.60
20171;DHT22;10245;51.344;6.620;2023-10-08T07:19:22;16.00;79.20
20171;DHT22;10245;51.344;6.620;2023-10-08T07:21:54;16.00;79.70
20171;DHT22;10245;51.344;6.620;2023-10-08T07:24:25;16.00;79.50
20171;DHT22;10245;51.344;6.620;2023-10-08T07:26:52;16.00;79.80
20171;DHT22;10245;51.344;6.620;2023-10-08T07:29:18;16.00;79.50
20171;DHT22;10245;51.344;6.620;2023-10-08T07:31:44;15.90;80.40
20171;DHT22;10245;51.344;6.620;2023-10-08T07:34:10;15.90;79.60
20171;DHT22;10245;51.344;6.620;2023-10-08T07:36:40;16.00;80.40
20171;DHT22;10245;51.344;6.620;2023-10-08T07:39:04;16.00;80.10
20171;DHT22;10245;51.344;6.620;2023-10-08T07:41:30;15.90;80.00
20171;DHT22;10245;51.344;6.620;2023-10-08T07:43:54;15.80;79.80
20171;DHT22;10245;51.344;6.620;2023-10-08T07:46:19;15.90;80.40
20171;DHT22;10245;51.344;6.620;2023-10-08T07:48:44;15.90;80.00
20171;DHT22;10245;51.344;6.620;2023-10-08T07:51:08;16.00;80.00
20171;DHT22;10245;51.344;6.620;2023-10-08T07:53:32;16.10;80.70
20171;DHT22;10245;51.344;6.620;2023-10-08T07:56:01;16.20;80.80
20171;DHT22;10245;51.344;6.620;2023-10-08T07:58:28;16.10;80.30
20171;DHT22;10245;51.344;6.620;2023-10-08T08:00:52;16.30;80.00
20171;DHT22;10245;51.344;6.620;2023-10-08T08:03:20;16.40;79.50
20171;DHT22;10245;51.344;6.620;2023-10-08T08:05:46;16.30;79.50
20171;DHT22;10245;51.344;6.620;2023-10-08T08:08:10;16.40;80.40
20171;DHT22;10245;51.344;6.620;2023-10-08T08:10:40;16.20;80.80
20171;DHT22;10245;51.344;6.620;2023-10-08T08:13:05;16.00;79.90
20171;DHT22;10245;51.344;6.620;2023-10-08T08:15:30;16.20;79.90
20171;DHT22;10245;51.344;6.620;2023-10-08T08:17:54;16.30;80.90
20171;DHT22;10245;51.344;6.620;2023-10-08T08:20:18;16.50;81.10
20171;DHT22;10245;51.344;6.620;2023-10-08T08:22:45;16.60;80.30
20171;DHT22;10245;51.344;6.620;2023-10-08T08:25:12;16.50;80.60
20171;DHT22;10245;51.344;6.620;2023-10-08T08:27:38;16.20;80.50
20171;DHT22;10245;51.344;6.620;2023-10-08T08:30:02;16.50;79.60
20171;DHT22;10245;51.344;6.620;2023-10-08T08:32:33;16.40;80.90
20171;DHT22;10245;51.344;6.620;2023-10-08T08:34:57;16.60;80.40
20171;DHT22;10245;51.344;6.620;2023-10-08T08:37:20;16.60;80.30
20171;DHT22;10245;51.344;6.620;2023-10-08T08:39:49;16.50;79.80
20171;DHT22;10245;51.344;6.620;2023-10-08T08:42:19;16.60;81.10
20171;DHT22;10245;51.344;6.620;2023-10-08T08:44:45;16.50;80.00
20171;DHT22;10245;51.344;6.620;2023-10-08T08:47:10;16.50;80.70
20171;DHT22;10245;51.344;6.620;2023-10-08T08:49:38;16.80;80.60
20171;DHT22;10245;51.344;6.620;2023-10-08T08:52:02;16.60;81.40
20171;DHT22;10245;51.344;6.620;2023-10-08T08:54:27;16.60;80.80
20171;DHT22;10245;51.344;6.620;2023-10-08T08:56:54;16.50;81.20
20171;DHT22;10245;51.344;6.620;2023-10-08T08:59:18;16.50;81.10
20171;DHT22;10245;51.344;6.620;2023-10-08T09:01:42;16.50;81.10
20171;DHT22;10245;51.344;6.620;2023-10-08T09:04:07;16.60;81.10
20171;DHT22;10245;51.344;6.620;2023-10-08T09:06:32;16.80;81.40
20171;DHT22;10245;51.344;6.620;2023-10-08T09:08:56;16.80;80.70
20171;DHT22;10245;51.344;6.620;2023-10-08T09:11:38;17.00;80.40
20171;DHT22;10245;51.344;6.620;2023-10-08T09:14:07;17.00;80.70
20171;DHT22;10245;51.344;6.620;2023-10-08T09:16:35;17.00;80.50
20171;DHT22;10245;51.344;6.620;2023-10-08T09:18:59;17.10;81.60
20171;DHT22;10245;51.344;6.620;2023-10-08T09:21:22;17.20;79.70
20171;DHT22;10245;51.344;6.620;2023-10-08T09:23:50;17.10;80.50
20171;DHT22;10245;51.344;6.620;2023-10-08T09:26:16;17.30;81.50
20171;DHT22;10245;51.344;6.620;2023-10-08T09:28:45;17.10;80.50
20171;DHT22;10245;51.344;6.620;2023-10-08T09:31:12;17.30;81.70
20171;DHT22;10245;51.344;6.620;2023-10-08T09:33:37;17.60;81.60
20171;DHT22;10245;51.344;6.620;2023-10-08T09:36:01;17.60;80.20
20171;DHT22;10245;51.344;6.620;2023-10-08T09:38:27;17.30;79.90
20171;DHT22;10245;51.344;6.620;2023-10-08T09:40:52;17.50;82.20
20171;DHT22;10245;51.344;6.620;2023-10-08T09:43:16;17.80;80.10
20171;DHT22;10245;51.344;6.620;2023-10-08T09:45:53;18.00;78.80
20171;DHT22;10245;51.344;6.620;2023-10-08T09:48:21;18.10;78.80
20171;DHT22;10245;51.344;6.620;2023-10-08T09:50:47;18.10;79.80
20171;DHT22;10245;51.344;6.620;2023-10-08T09:53:12;18.00;80.20
20171;DHT22;10245;51.344;6.620;2023-10-08T09:55:43;18.10;80.30
20171;DHT22;10245;51.344;6.620;2023-10-08T09:58:08;18.00;79.60
20171;DHT22;10245;51.344;6.620;2023-10-08T10:00:36;18.00;80.80
20171;DHT22;10245;51.344;6.620;2023-10-08T10:03:02;17.80;79.90
20171;DHT22;10245;51.344;6.620;2023-10-08T10:05:31;18.00;80.90
20171;DHT22;10245;51.344;6.620;2023-10-08T10:07:58;17.80;79.90
20171;DHT22;10245;51.344;6.620;2023-10-08T10:10:28;18.00;81.30
20171;DHT22;10245;51.344;6.620;2023-10-08T10:12:57;18.00;81.50
20171;DHT22;10245;51.344;6.620;2023-10-08T10:15:22;18.10;79.50
20171;DHT22;10245;51.344;6.620;2023-10-08T10:17:52;18.10;79.60
20171;DHT22;10245;51.344;6.620;2023-10-08T10:20:20;17.90;79.70
20171;DHT22;10245;51.344;6.620;2023-10-08T10:22:45;18.00;80.20
20171;DHT22;10245;51.344;6.620;2023-10-08T10:25:10;17.90;79.70
20171;DHT22;10245;51.344;6.620;2023-10-08T10:27:39;17.60;80.50
20171;DHT22;10245;51.344;6.620;2023-10-08T10:30:04;17.80;81.10
20171;DHT22;10245;51.344;6.620;2023-10-08T10:32:30;18.10;81.00
20171;DHT22;10245;51.344;6.620;2023-10-08T10:34:55;18.30;80.20
20171;DHT22;10245;51.344;6.620;2023-10-08T10:37:19;18.40;79.30
20171;DHT22;10245;51.344;6.620;2023-10-08T10:39:52;18.20;80.20
20171;DHT22;10245;51.344;6.620;2023-10-08T10:42:21;18.10;79.20
20171;DHT22;10245;51.344;6.620;2023-10-08T10:44:46;18.00;80.30
20171;DHT22;10245;51.344;6.620;2023-10-08T10:47:11;18.10;80.70
20171;DHT22;10245;51.344;6.620;2023-10-08T10:49:56;17.90;79.50
20171;DHT22;10245;51.344;6.620;2023-10-08T10:52:34;17.80;79.90
20171;DHT22;10245;51.344;6.620;2023-10-08T10:55:09;18.10;80.60
20171;DHT22;10245;51.344;6.620;2023-10-08T10:57:47;18.00;80.10
20171;DHT22;10245;51.344;6.620;2023-10-08T11:00:16;18.00;79.80
20171;DHT22;10245;51.344;6.620;2023-10-08T11:03:03;18.00;80.10
20171;DHT22;10245;51.344;6.620;2023-10-08T11:05:39;17.90;80.50
20171;DHT22;10245;51.344;6.620;2023-10-08T11:08:09;18.00;80.70
20171;DHT22;10245;51.344;6.620;2023-10-08T11:10:39;18.00;80.40
20171;DHT22;10245;51.344;6.620;2023-10-08T11:13:08;18.00;80.30
20171;DHT22;10245;51.344;6.620;2023-10-08T11:15:37;17.90;79.70
20171;DHT22;10245;51.344;6.620;2023-10-08T11:18:07;17.90;80.50
20171;DHT22;10245;51.344;6.620;2023-10-08T11:20:31;18.00;80.60
20171;DHT22;10245;51.344;6.620;2023-10-08T11:23:00;17.90;81.60
20171;DHT22;10245;51.344;6.620;2023-10-08T11:25:41;17.90;81.70
20171;DHT22;10245;51.344;6.620;2023-10-08T11:28:15;17.90;81.10
20171;DHT22;10245;51.344;6.620;2023-10-08T11:30:40;18.00;81.00
20171;DHT22;10245;51.344;6.620;2023-10-08T11:33:04;17.90;80.50
20171;DHT22;10245;51.344;6.620;2023-10-08T11:35:28;17.80;81.00
20171;DHT22;10245;51.344;6.620;2023-10-08T11:37:59;18.00;81.30
20171;DHT22;10245;51.344;6.620;2023-10-08T11:40:25;18.00;81.10
20171;DHT22;10245;51.344;6.620;2023-10-08T11:42:53;17.90;80.80
20171;DHT22;10245;51.344;6.620;2023-10-08T11:45:18;17.60;80.80
20171;DHT22;10245;51.344;6.620;2023-10-08T11:47:46;17.60;81.20
20171;DHT22;10245;51.344;6.620;2023-10-08T11:50:11;17.60;82.40
20171;DHT22;10245;51.344;6.620;2023-10-08T11:52:39;17.90;81.60
20171;DHT22;10245;51.344;6.620;2023-10-08T11:55:04;17.90;81.00
20171;DHT22;10245;51.344;6.620;2023-10-08T11:57:30;18.00;80.90
20171;DHT22;10245;51.344;6.620;2023-10-08T11:59:58;18.20;80.20
20171;DHT22;10245;51.344;6.620;2023-10-08T12:02:25;18.00;79.20
20171;DHT22;10245;51.344;6.620;2023-10-08T12:04:49;18.00;80.20
20171;DHT22;10245;51.344;6.620;2023-10-08T12:07:13;18.10;80.60
20171;DHT22;10245;51.344;6.620;2023-10-08T12:09:40;18.10;79.90
20171;DHT22;10245;51.344;6.620;2023-10-08T12:12:03;18.00;80.30
20171;DHT22;10245;51.344;6.620;2023-10-08T12:14:31;18.20;80.80
20171;DHT22;10245;51.344;6.620;2023-10-08T12:16:56;18.00;79.00
20171;DHT22;10245;51.344;6.620;2023-10-08T12:19:22;17.90;80.40
20171;DHT22;10245;51.344;6.620;2023-10-08T12:21:48;18.00;81.10
20171;DHT22;10245;51.344;6.620;2023-10-08T12:24:11;17.90;80.60
20171;DHT22;10245;51.344;6.620;2023-10-08T12:26:36;18.00;80.10
20171;DHT22;10245;51.344;6.620;2023-10-08T12:29:04;18.30;79.30
20171;DHT22;10245;51.344;6.620;2023-10-08T12:31:29;18.20;79.30
20171;DHT22;10245;51.344;6.620;2023-10-08T12:33:54;18.10;79.40
20171;DHT22;10245;51.344;6.620;2023-10-08T12:36:20;18.00;80.50
20171;DHT22;10245;51.344;6.620;2023-10-08T12:38:45;17.90;80.40
20171;DHT22;10245;51.344;6.620;2023-10-08T12:41:10;17.80;80.60
20171;DHT22;10245;51.344;6.620;2023-10-08T12:43:39;17.90;80.10
20171;DHT22;10245;51.344;6.620;2023-10-08T12:46:07;17.90;80.40
20171;DHT22;10245;51.344;6.620;2023-10-08T12:48:33;18.00;79.50
20171;DHT22;10245;51.344;6.620;2023-10-08T12:50:58;18.00;80.70
20171;DHT22;10245;51.344;6.620;2023-10-08T12:53:23;18.00;80.30
20171;DHT22;10245;51.344;6.620;2023-10-08T12:55:56;17.80;80.90
20171;DHT22;10245;51.344;6.620;2023-10-08T12:58:21;18.00;81.30
20171;DHT22;10245;51.344;6.620;2023-10-08T13:00:47;17.90;80.70
20171;DHT22;10245;51.344;6.620;2023-10-08T13:03:19;18.00;80.80
20171;DHT22;10245;51.344;6.620;2023-10-08T13:05:46;18.00;80.00
20171;DHT22;10245;51.344;6.620;2023-10-08T13:08:11;18.00;80.70
20171;DHT22;10245;51.344;6.620;2023-10-08T13:10:36;18.10;80.40
20171;DHT22;10245;51.344;6.620;2023-10-08T13:13:03;17.90;81.20
20171;DHT22;10245;51.344;6.620;2023-10-08T13:15:28;18.10;80.60
20171;DHT22;10245;51.344;6.620;2023-10-08T13:17:54;18.20;80.40
20171;DHT22;10245;51.344;6.620;2023-10-08T13:20:18;18.10;79.80
20171;DHT22;10245;51.344;6.620;2023-10-08T13:22:43;18.10;80.10
20171;DHT22;10245;51.344;6.620;2023-10-08T13:25:10;18.30;79.70
20171;DHT22;10245;51.344;6.620;2023-10-08T13:27:34;18.20;79.80
20171;DHT22;10245;51.344;6.620;2023-10-08T13:30:01;18.30;79.70
20171;DHT22;10245;51.344;6.620;2023-10-08T13:32:27;18.30;79.70
20171;DHT22;10245;51.344;6.620;2023-10-08T13:34:51;18.40;79.30
20171;DHT22;10245;51.344;6.620;2023-10-08T13:37:14;18.30;79.30
20171;DHT22;10245;51.344;6.620;2023-10-08T13:39:38;18.30;80.30
20171;DHT22;10245;51.344;6.620;2023-10-08T13:42:04;18.30;79.60
20171;DHT22;10245;51.344;6.620;2023-10-08T13:44:27;18.10;79.20
20171;DHT22;10245;51.344;6.620;2023-10-08T13:46:52;18.00;80.00
20171;DHT22;10245;51.344;6.620;2023-10-08T13:49:19;18.20;81.40
20171;DHT22;10245;51.344;6.620;2023-10-08T13:51:44;18.10;80.00
20171;DHT22;10245;51.344;6.620;2023-10-08T13:54:08;18.20;80.50
20171;DHT22;10245;51.344;6.620;2023-10-08T13:56:33;18.30;79.50
20171;DHT22;10245;51.344;6.620;2023-10-08T13:59:01;18.00;79.90
20171;DHT22;10245;51.344;6.620;2023-10-08T14:01:34;18.30;80.50
20171;DHT22;10245;51.344;6.620;2023-10-08T14:03:58;18.40;79.80
20171;DHT22;10245;51.344;6.620;2023-10-08T14:06:28;18.50;79.90
20171;DHT22;10245;51.344;6.620;2023-10-08T14:08:54;18.50;78.90
20171;DHT22;10245;51.344;6.620;2023-10-08T14:11:18;18.30;78.80
20171;DHT22;10245;51.344;6.620;2023-10-08T14:13:45;18.30;79.80
20171;DHT22;10245;51.344;6.620;2023-10-08T14:16:12;18.40;79.30
20171;DHT22;10245;51.344;6.620;2023-10-08T14:18:37;18.50;79.80
20171;DHT22;10245;51.344;6.620;2023-10-08T14:21:03;18.40;79.10
20171;DHT22;10245;51.344;6.620;2023-10-08T14:23:32;18.40;79.70
20171;DHT22;10245;51.344;6.620;2023-10-08T14:26:00;18.40;80.50
20171;DHT22;10245;51.344;6.620;2023-10-08T14:28:26;18.40;79.40
20171;DHT22;10245;51.344;6.620;2023-10-08T14:31:03;18.20;79.80
20171;DHT22;10245;51.344;6.620;2023-10-08T14:33:28;18.30;80.10
20171;DHT22;10245;51.344;6.620;2023-10-08T14:35:54;18.30;79.80
20171;DHT22;10245;51.344;6.620;2023-10-08T14:38:36;18.50;79.90
20171;DHT22;10245;51.344;6.620;2023-10-08T14:41:17;18.50;79.60
20171;DHT22;10245;51.344;6.620;2023-10-08T14:44:13;18.50;78.70
20171;DHT22;10245;51.344;6.620;2023-10-08T14:46:37;18.50;79.60
20171;DHT22;10245;51.344;6.620;2023-10-08T14:49:03;18.70;78.70
20171;DHT22;10245;51.344;6.620;2023-10-08T14:51:31;18.80;79.90
20171;DHT22;10245;51.344;6.620;2023-10-08T14:53:55;18.70;79.70
20171;DHT22;10245;51.344;6.620;2023-10-08T14:56:19;18.80;78.50
20171;DHT22;10245;51.344;6.620;2023-10-08T14:58:42;18.80;78.60
20171;DHT22;10245;51.344;6.620;2023-10-08T15:01:06;18.80;79.30
20171;DHT22;10245;51.344;6.620;2023-10-08T15:03:30;18.90;78.60
20171;DHT22;10245;51.344;6.620;2023-10-08T15:05:55;18.90;79.20
20171;DHT22;10245;51.344;6.620;2023-10-08T15:08:19;18.90;77.70
20171;DHT22;10245;51.344;6.620;2023-10-08T15:10:43;18.80;78.00
20171;DHT22;10245;51.344;6.620;2023-10-08T15:13:08;18.80;78.00
20171;DHT22;10245;51.344;6.620;2023-10-08T15:15:32;18.90;79.90
20171;DHT22;10245;51.344;6.620;2023-10-08T15:17:56;19.00;80.00
20171;DHT22;10245;51.344;6.620;2023-10-08T15:20:20;18.80;78.70
20171;DHT22;10245;51.344;6.620;2023-10-08T15:22:48;18.70;78.50
20171;DHT22;10245;51.344;6.620;2023-10-08T15:25:13;18.70;78.80
20171;DHT22;10245;51.344;6.620;2023-10-08T15:27:39;18.80;78.60
20171;DHT22;10245;51.344;6.620;2023-10-08T15:30:03;18.70;79.60
20171;DHT22;10245;51.344;6.620;2023-10-08T15:32:33;18.70;79.60
20171;DHT22;10245;51.344;6.620;2023-10-08T15:34:57;18.70;79.20